sensor_id;sensor_type;location;lat;lon;timestamp;pressure;altitude;pressure_sealevel;temperature;humidity
43155;BME280;34212;51.018;13.586;2023-01-29T00:03:49;98965.09;;;0.48;87.16
43155;BME280;34212;51.018;13.586;2023-01-29T00:08:51;98953.47;;;0.52;86.93
43155;BME280;34212;51.018;13.586;2023-01-29T00:13:52;98940.16;;;0.55;87.09
43155;BME280;34212;51.018;13.586;2023-01-29T00:18:54;98942.72;;;0.56;86.96
43155;BME280;34212;51.018;13.586;2023-01-29T00:23:56;98944.28;;;0.59;86.69
43155;BME280;34212;51.018;13.586;2023-01-29T00:28:58;98925.00;;;0.60;86.53
43155;BME280;34212;51.018;13.586;2023-01-29T00:34:02;98923.22;;;0.60;86.66
43155;BME280;34212;51.018;13.586;2023-01-29T00:39:04;98916.28;;;0.59;86.48
43155;BME280;34212;51.018;13.586;2023-01-29T00:44:11;98909.31;;;0.58;86.19
43155;BME280;34212;51.018;13.586;2023-01-29T00:49:32;98900.59;;;0.58;85.77
43155;BME280;34212;51.018;13.586;2023-01-29T00:54:34;98913.75;;;0.58;86.45
43155;BME280;34212;51.018;13.586;2023-01-29T00:59:35;98918.81;;;0.61;86.21
43155;BME280;34212;51.018;13.586;2023-01-29T01:04:37;98911.88;;;0.60;86.38
43155;BME280;34212;51.018;13.586;2023-01-29T01:09:39;98932.28;;;0.55;86.10
43155;BME280;34212;51.018;13.586;2023-01-29T01:14:59;98928.34;;;0.48;85.99
43155;BME280;34212;51.018;13.586;2023-01-29T01:20:01;98921.19;;;0.50;86.48
43155;BME280;34212;51.018;13.586;2023-01-29T01:25:03;98921.97;;;0.52;86.54
43155;BME280;34212;51.018;13.586;2023-01-29T01:30:08;98910.63;;;0.51;86.02
43155;BME280;34212;51.018;13.586;2023-01-29T01:35:10;98905.47;;;0.50;86.29
43155;BME280;34212;51.018;13.586;2023-01-29T01:40:15;98903.88;;;0.47;85.96
43155;BME280;34212;51.018;13.586;2023-01-29T01:55:42;98899.25;;;0.36;86.34
43155;BME280;34212;51.018;13.586;2023-01-29T02:00:45;98906.72;;;0.28;85.60
43155;BME280;34212;51.018;13.586;2023-01-29T02:05:48;98900.81;;;0.09;85.60
43155;BME280;34212;51.018;13.586;2023-01-29T02:11:09;98890.31;;;0.09;86.06
43155;BME280;34212;51.018;13.586;2023-01-29T02:16:10;98875.53;;;0.08;85.41
43155;BME280;34212;51.018;13.586;2023-01-29T02:31:43;98872.47;;;-0.31;83.75
43155;BME280;34212;51.018;13.586;2023-01-29T02:37:03;98877.56;;;-0.43;83.28
43155;BME280;34212;51.018;13.586;2023-01-29T02:42:32;98870.53;;;-0.59;83.74
43155;BME280;34212;51.018;13.586;2023-01-29T02:47:47;98877.19;;;-0.69;83.36
43155;BME280;34212;51.018;13.586;2023-01-29T02:57:59;98885.44;;;-0.93;82.96
43155;BME280;34212;51.018;13.586;2023-01-29T03:03:17;98887.44;;;-0.98;82.97
43155;BME280;34212;51.018;13.586;2023-01-29T03:08:29;98884.94;;;-0.99;83.11
43155;BME280;34212;51.018;13.586;2023-01-29T03:13:58;98879.00;;;-1.03;82.79
43155;BME280;34212;51.018;13.586;2023-01-29T03:19:07;98873.16;;;-1.08;83.01
43155;BME280;34212;51.018;13.586;2023-01-29T03:24:17;98877.63;;;-1.10;82.80
43155;BME280;34212;51.018;13.586;2023-01-29T03:29:41;98869.19;;;-1.15;82.72
43155;BME280;34212;51.018;13.586;2023-01-29T03:35:21;98867.78;;;-1.22;82.46
43155;BME280;34212;51.018;13.586;2023-01-29T03:40:48;98878.56;;;-1.28;82.62
43155;BME280;34212;51.018;13.586;2023-01-29T04:01:57;98886.47;;;-1.46;82.32
43155;BME280;34212;51.018;13.586;2023-01-29T04:07:11;98883.06;;;-1.48;82.17
43155;BME280;34212;51.018;13.586;2023-01-29T04:12:18;98875.31;;;-1.49;82.07
43155;BME280;34212;51.018;13.586;2023-01-29T04:17:32;98868.47;;;-1.52;82.67
43155;BME280;34212;51.018;13.586;2023-01-29T04:22:46;98856.84;;;-1.64;82.00
43155;BME280;34212;51.018;13.586;2023-01-29T04:33:20;98834.56;;;-1.71;82.85
43155;BME280;34212;51.018;13.586;2023-01-29T04:43:42;98817.09;;;-1.70;82.25
43155;BME280;34212;51.018;13.586;2023-01-29T04:54:35;98796.38;;;-1.75;82.92
43155;BME280;34212;51.018;13.586;2023-01-29T04:59:50;98803.47;;;-1.77;82.85
43155;BME280;34212;51.018;13.586;2023-01-29T05:04:56;98783.41;;;-1.76;82.83
43155;BME280;34212;51.018;13.586;2023-01-29T05:09:59;98775.47;;;-1.75;82.53
43155;BME280;34212;51.018;13.586;2023-01-29T05:15:03;98767.56;;;-1.73;82.92
43155;BME280;34212;51.018;13.586;2023-01-29T05:20:07;98781.47;;;-1.73;82.47
43155;BME280;34212;51.018;13.586;2023-01-29T05:25:24;98784.94;;;-1.72;82.40
43155;BME280;34212;51.018;13.586;2023-01-29T05:30:26;98776.34;;;-1.74;82.56
43155;BME280;34212;51.018;13.586;2023-01-29T05:35:28;98769.38;;;-1.75;82.90
43155;BME280;34212;51.018;13.586;2023-01-29T05:40:30;98770.16;;;-1.73;82.37
43155;BME280;34212;51.018;13.586;2023-01-29T05:45:32;98770.16;;;-1.73;81.99
43155;BME280;34212;51.018;13.586;2023-01-29T05:50:33;98774.63;;;-1.75;82.25
43155;BME280;34212;51.018;13.586;2023-01-29T05:55:35;98753.69;;;-1.75;81.45
43155;BME280;34212;51.018;13.586;2023-01-29T06:00:37;98755.56;;;-1.77;81.59
43155;BME280;34212;51.018;13.586;2023-01-29T06:05:38;98771.41;;;-1.80;81.30
43155;BME280;34212;51.018;13.586;2023-01-29T06:10:41;98770.63;;;-1.82;81.51
43155;BME280;34212;51.018;13.586;2023-01-29T06:15:43;98761.63;;;-1.77;81.76
43155;BME280;34212;51.018;13.586;2023-01-29T06:20:45;98787.38;;;-1.69;82.09
43155;BME280;34212;51.018;13.586;2023-01-29T06:25:46;98799.16;;;-1.60;82.30
43155;BME280;34212;51.018;13.586;2023-01-29T06:30:48;98807.19;;;-1.48;82.94
43155;BME280;34212;51.018;13.586;2023-01-29T06:35:58;98811.09;;;-1.39;83.46
43155;BME280;34212;51.018;13.586;2023-01-29T06:41:07;98822.63;;;-1.26;84.41
43155;BME280;34212;51.018;13.586;2023-01-29T06:46:10;98804.63;;;-1.16;84.64
43155;BME280;34212;51.018;13.586;2023-01-29T06:51:12;98802.47;;;-1.08;84.88
43155;BME280;34212;51.018;13.586;2023-01-29T06:56:13;98837.84;;;-1.01;85.17
43155;BME280;34212;51.018;13.586;2023-01-29T07:01:15;98857.72;;;-0.97;85.63
43155;BME280;34212;51.018;13.586;2023-01-29T07:06:35;98862.44;;;-0.87;85.88
43155;BME280;34212;51.018;13.586;2023-01-29T07:11:37;98867.19;;;-0.78;86.00
43155;BME280;34212;51.018;13.586;2023-01-29T07:16:39;98872.09;;;-0.72;85.76
43155;BME280;34212;51.018;13.586;2023-01-29T07:21:40;98880.75;;;-0.70;86.03
43155;BME280;34212;51.018;13.586;2023-01-29T07:26:42;98873.38;;;-0.63;86.11
43155;BME280;34212;51.018;13.586;2023-01-29T07:31:44;98870.53;;;-0.59;85.94
43155;BME280;34212;51.018;13.586;2023-01-29T07:36:45;98861.63;;;-0.56;86.37
43155;BME280;34212;51.018;13.586;2023-01-29T07:41:47;98857.94;;;-0.52;86.60
43155;BME280;34212;51.018;13.586;2023-01-29T07:46:49;98847.09;;;-0.46;86.63
43155;BME280;34212;51.018;13.586;2023-01-29T07:51:51;98866.72;;;-0.37;86.80
43155;BME280;34212;51.018;13.586;2023-01-29T07:56:53;98863.56;;;-0.28;86.85
43155;BME280;34212;51.018;13.586;2023-01-29T08:01:54;98848.25;;;-0.20;86.73
43155;BME280;34212;51.018;13.586;2023-01-29T08:06:56;98828.63;;;-0.13;87.17
43155;BME280;34212;51.018;13.586;2023-01-29T08:11:57;98827.06;;;-0.01;87.69
43155;BME280;34212;51.018;13.586;2023-01-29T08:16:59;98813.34;;;0.10;87.98
43155;BME280;34212;51.018;13.586;2023-01-29T08:22:00;98810.75;;;0.24;88.32
43155;BME280;34212;51.018;13.586;2023-01-29T08:27:02;98805.16;;;0.44;88.72
43155;BME280;34212;51.018;13.586;2023-01-29T08:32:04;98808.72;;;0.58;88.64
43155;BME280;34212;51.018;13.586;2023-01-29T08:37:05;98803.94;;;0.64;88.92
43155;BME280;34212;51.018;13.586;2023-01-29T08:42:07;98799.53;;;0.65;88.01
43155;BME280;34212;51.018;13.586;2023-01-29T08:47:08;98799.06;;;0.58;88.06
43155;BME280;34212;51.018;13.586;2023-01-29T08:52:10;98811.72;;;0.52;88.19
43155;BME280;34212;51.018;13.586;2023-01-29T08:57:12;98817.28;;;0.47;88.36
43155;BME280;34212;51.018;13.586;2023-01-29T09:02:13;98821.47;;;0.50;88.42
43155;BME280;34212;51.018;13.586;2023-01-29T09:07:15;98814.16;;;0.55;88.79
43155;BME280;34212;51.018;13.586;2023-01-29T09:12:17;98796.19;;;0.63;88.66
43155;BME280;34212;51.018;13.586;2023-01-29T09:17:18;98783.72;;;0.66;88.45
43155;BME280;34212;51.018;13.586;2023-01-29T09:22:20;98787.81;;;0.71;89.12
43155;BME280;34212;51.018;13.586;2023-01-29T09:27:22;98794.09;;;0.68;88.15
43155;BME280;34212;51.018;13.586;2023-01-29T09:32:24;98763.84;;;0.62;88.49
43155;BME280;34212;51.018;13.586;2023-01-29T09:37:47;98775.25;;;0.61;88.89
43155;BME280;34212;51.018;13.586;2023-01-29T09:42:54;98787.00;;;0.70;89.22
43155;BME280;34212;51.018;13.586;2023-01-29T09:47:59;98792.72;;;0.91;89.30
43155;BME280;34212;51.018;13.586;2023-01-29T09:53:19;98772.03;;;1.13;89.15
43155;BME280;34212;51.018;13.586;2023-01-29T09:58:35;98760.63;;;1.27;89.48
43155;BME280;34212;51.018;13.586;2023-01-29T10:20:09;98739.63;;;1.67;89.40
43155;BME280;34212;51.018;13.586;2023-01-29T10:25:19;98752.19;;;1.76;88.80
43155;BME280;34212;51.018;13.586;2023-01-29T10:30:32;98749.78;;;1.86;89.87
43155;BME280;34212;51.018;13.586;2023-01-29T10:35:42;98747.16;;;1.99;89.51
43155;BME280;34212;51.018;13.586;2023-01-29T11:02:45;98710.75;;;1.93;90.10
43155;BME280;34212;51.018;13.586;2023-01-29T11:07:59;98698.13;;;1.98;90.19
43155;BME280;34212;51.018;13.586;2023-01-29T11:13:04;98673.72;;;1.96;89.77
43155;BME280;34212;51.018;13.586;2023-01-29T11:18:13;98673.50;;;1.99;89.85
43155;BME280;34212;51.018;13.586;2023-01-29T11:23:29;98662.56;;;2.05;90.53
43155;BME280;34212;51.018;13.586;2023-01-29T11:33:38;98644.34;;;2.15;90.64
43155;BME280;34212;51.018;13.586;2023-01-29T11:38:40;98636.69;;;2.24;90.58
43155;BME280;34212;51.018;13.586;2023-01-29T11:43:42;98630.03;;;2.31;90.87
43155;BME280;34212;51.018;13.586;2023-01-29T11:48:49;98618.53;;;2.33;89.92
43155;BME280;34212;51.018;13.586;2023-01-29T11:54:14;98636.88;;;2.34;90.30
43155;BME280;34212;51.018;13.586;2023-01-29T12:04:25;98630.28;;;2.65;91.48
43155;BME280;34212;51.018;13.586;2023-01-29T12:09:28;98606.84;;;2.73;91.17
43155;BME280;34212;51.018;13.586;2023-01-29T12:14:31;98611.16;;;2.74;90.48
43155;BME280;34212;51.018;13.586;2023-01-29T12:24:51;98591.94;;;2.85;91.05
43155;BME280;34212;51.018;13.586;2023-01-29T12:30:16;98571.53;;;3.00;91.62
43155;BME280;34212;51.018;13.586;2023-01-29T12:35:21;98556.72;;;3.10;92.12
43155;BME280;34212;51.018;13.586;2023-01-29T12:40:30;98559.13;;;3.13;91.43
43155;BME280;34212;51.018;13.586;2023-01-29T12:45:35;98554.34;;;3.18;91.37
43155;BME280;34212;51.018;13.586;2023-01-29T12:50:38;98551.22;;;3.13;90.82
43155;BME280;34212;51.018;13.586;2023-01-29T12:55:57;98557.53;;;3.11;91.24
43155;BME280;34212;51.018;13.586;2023-01-29T13:01:05;98551.44;;;3.10;91.27
43155;BME280;34212;51.018;13.586;2023-01-29T13:06:11;98562.72;;;3.12;91.40
43155;BME280;34212;51.018;13.586;2023-01-29T13:11:20;98549.69;;;3.22;91.62
43155;BME280;34212;51.018;13.586;2023-01-29T13:16:26;98545.16;;;3.35;91.72
43155;BME280;34212;51.018;13.586;2023-01-29T13:21:38;98527.81;;;3.44;92.26
43155;BME280;34212;51.018;13.586;2023-01-29T13:26:47;98523.03;;;3.49;91.92
43155;BME280;34212;51.018;13.586;2023-01-29T13:31:53;98518.22;;;3.43;91.34
43155;BME280;34212;51.018;13.586;2023-01-29T13:36:59;98526.38;;;3.40;91.96
43155;BME280;34212;51.018;13.586;2023-01-29T13:42:14;98516.06;;;3.37;91.40
43155;BME280;34212;51.018;13.586;2023-01-29T13:47:23;98524.28;;;3.32;91.29
43155;BME280;34212;51.018;13.586;2023-01-29T13:52:37;98539.28;;;3.32;90.90
43155;BME280;34212;51.018;13.586;2023-01-29T14:02:47;98523.13;;;3.01;90.38
43155;BME280;34212;51.018;13.586;2023-01-29T14:07:49;98513.09;;;3.06;91.47
43155;BME280;34212;51.018;13.586;2023-01-29T14:23:07;98509.97;;;3.01;90.23
43155;BME280;34212;51.018;13.586;2023-01-29T14:28:24;98517.09;;;2.88;89.25
43155;BME280;34212;51.018;13.586;2023-01-29T14:33:36;98493.84;;;2.82;90.05
43155;BME280;34212;51.018;13.586;2023-01-29T14:38:40;98492.88;;;2.71;89.93
43155;BME280;34212;51.018;13.586;2023-01-29T14:43:46;98504.06;;;2.62;89.07
43155;BME280;34212;51.018;13.586;2023-01-29T14:48:48;98511.69;;;2.54;89.23
43155;BME280;34212;51.018;13.586;2023-01-29T14:54:00;98520.16;;;2.46;88.87
43155;BME280;34212;51.018;13.586;2023-01-29T14:59:14;98513.63;;;2.39;89.78
43155;BME280;34212;51.018;13.586;2023-01-29T15:04:26;98509.88;;;2.30;88.28
43155;BME280;34212;51.018;13.586;2023-01-29T15:09:36;98509.69;;;2.21;88.14
43155;BME280;34212;51.018;13.586;2023-01-29T15:15:02;98514.78;;;2.11;88.13
43155;BME280;34212;51.018;13.586;2023-01-29T15:25:46;98504.75;;;1.79;87.68
43155;BME280;34212;51.018;13.586;2023-01-29T15:30:56;98483.13;;;1.63;88.21
43155;BME280;34212;51.018;13.586;2023-01-29T15:36:01;98482.06;;;1.66;89.23
43155;BME280;34212;51.018;13.586;2023-01-29T15:41:20;98482.69;;;1.69;89.26
43155;BME280;34212;51.018;13.586;2023-01-29T15:46:29;98479.84;;;1.72;89.02
43155;BME280;34212;51.018;13.586;2023-01-29T15:51:34;98478.13;;;1.71;88.88
43155;BME280;34212;51.018;13.586;2023-01-29T15:56:41;98477.00;;;1.75;89.36
43155;BME280;34212;51.018;13.586;2023-01-29T16:01:44;98488.97;;;1.79;89.43
43155;BME280;34212;51.018;13.586;2023-01-29T16:06:46;98476.78;;;1.78;89.06
43155;BME280;34212;51.018;13.586;2023-01-29T16:11:49;98477.09;;;1.74;89.01
43155;BME280;34212;51.018;13.586;2023-01-29T16:16:52;98485.09;;;1.72;88.93
43155;BME280;34212;51.018;13.586;2023-01-29T16:21:59;98471.75;;;1.75;89.19
43155;BME280;34212;51.018;13.586;2023-01-29T16:27:12;98468.16;;;1.76;88.94
43155;BME280;34212;51.018;13.586;2023-01-29T16:32:15;98470.03;;;1.74;89.08
43155;BME280;34212;51.018;13.586;2023-01-29T16:37:21;98452.19;;;1.67;89.17
43155;BME280;34212;51.018;13.586;2023-01-29T16:42:25;98448.63;;;1.55;89.03
43155;BME280;34212;51.018;13.586;2023-01-29T16:47:35;98443.91;;;1.60;89.38
43155;BME280;34212;51.018;13.586;2023-01-29T16:52:37;98440.31;;;1.61;89.22
43155;BME280;34212;51.018;13.586;2023-01-29T16:57:39;98434.84;;;1.64;89.57
43155;BME280;34212;51.018;13.586;2023-01-29T17:02:41;98432.19;;;1.64;89.38
43155;BME280;34212;51.018;13.586;2023-01-29T17:07:43;98431.38;;;1.64;88.87
43155;BME280;34212;51.018;13.586;2023-01-29T17:12:59;98423.16;;;1.55;88.84
43155;BME280;34212;51.018;13.586;2023-01-29T17:18:02;98424.47;;;1.50;89.30
43155;BME280;34212;51.018;13.586;2023-01-29T17:23:04;98429.94;;;1.47;89.15
43155;BME280;34212;51.018;13.586;2023-01-29T17:28:06;98424.91;;;1.44;88.84
43155;BME280;34212;51.018;13.586;2023-01-29T17:33:12;98424.25;;;1.40;89.38
43155;BME280;34212;51.018;13.586;2023-01-29T17:38:16;98429.28;;;1.43;88.93
43155;BME280;34212;51.018;13.586;2023-01-29T17:43:26;98435.41;;;1.44;89.27
43155;BME280;34212;51.018;13.586;2023-01-29T17:48:29;98421.81;;;1.37;88.73
43155;BME280;34212;51.018;13.586;2023-01-29T17:53:30;98423.13;;;1.31;88.77
43155;BME280;34212;51.018;13.586;2023-01-29T17:58:46;98420.09;;;1.25;88.75
43155;BME280;34212;51.018;13.586;2023-01-29T18:03:47;98421.34;;;1.19;88.77
43155;BME280;34212;51.018;13.586;2023-01-29T18:08:49;98409.75;;;1.09;88.40
43155;BME280;34212;51.018;13.586;2023-01-29T18:13:50;98400.22;;;0.95;88.14
43155;BME280;34212;51.018;13.586;2023-01-29T18:18:52;98387.50;;;0.76;87.93
43155;BME280;34212;51.018;13.586;2023-01-29T18:23:53;98386.47;;;0.66;88.50
43155;BME280;34212;51.018;13.586;2023-01-29T18:28:55;98376.56;;;0.57;87.92
43155;BME280;34212;51.018;13.586;2023-01-29T18:33:56;98368.38;;;0.49;88.52
43155;BME280;34212;51.018;13.586;2023-01-29T18:38:58;98362.06;;;0.38;87.80
43155;BME280;34212;51.018;13.586;2023-01-29T18:43:59;98357.44;;;0.29;88.19
43155;BME280;34212;51.018;13.586;2023-01-29T18:49:01;98359.31;;;0.27;88.23
43155;BME280;34212;51.018;13.586;2023-01-29T18:54:03;98343.97;;;0.21;88.15
43155;BME280;34212;51.018;13.586;2023-01-29T18:59:04;98332.56;;;0.22;88.29
43155;BME280;34212;51.018;13.586;2023-01-29T19:04:07;98327.31;;;0.22;88.67
43155;BME280;34212;51.018;13.586;2023-01-29T19:09:08;98320.91;;;0.26;88.79
43155;BME280;34212;51.018;13.586;2023-01-29T19:14:10;98301.38;;;0.30;89.14
43155;BME280;34212;51.018;13.586;2023-01-29T19:19:11;98301.38;;;0.30;88.50
43155;BME280;34212;51.018;13.586;2023-01-29T19:24:13;98296.34;;;0.27;88.61
43155;BME280;34212;51.018;13.586;2023-01-29T19:29:15;98287.53;;;0.28;88.51
43155;BME280;34212;51.018;13.586;2023-01-29T19:34:18;98278.94;;;0.26;89.04
43155;BME280;34212;51.018;13.586;2023-01-29T19:39:19;98277.75;;;0.17;88.32
43155;BME280;34212;51.018;13.586;2023-01-29T19:44:21;98271.03;;;0.13;88.54
43155;BME280;34212;51.018;13.586;2023-01-29T19:49:22;98266.50;;;0.03;88.21
43155;BME280;34212;51.018;13.586;2023-01-29T19:54:24;98263.78;;;-0.09;88.00
43155;BME280;34212;51.018;13.586;2023-01-29T19:59:27;98270.66;;;-0.20;87.63
43155;BME280;34212;51.018;13.586;2023-01-29T20:04:29;98266.84;;;-0.29;87.26
43155;BME280;34212;51.018;13.586;2023-01-29T20:09:30;98268.28;;;-0.38;86.95
43155;BME280;34212;51.018;13.586;2023-01-29T20:14:32;98264.53;;;-0.47;87.01
43155;BME280;34212;51.018;13.586;2023-01-29T20:19:33;98272.78;;;-0.53;87.07
43155;BME280;34212;51.018;13.586;2023-01-29T20:24:35;98264.44;;;-0.59;87.00
43155;BME280;34212;51.018;13.586;2023-01-29T20:29:39;98260.28;;;-0.62;87.00
43155;BME280;34212;51.018;13.586;2023-01-29T20:34:41;98242.97;;;-0.64;86.99
43155;BME280;34212;51.018;13.586;2023-01-29T20:39:43;98243.78;;;-0.64;86.98
43155;BME280;34212;51.018;13.586;2023-01-29T20:44:44;98223.78;;;-0.65;87.22
43155;BME280;34212;51.018;13.586;2023-01-29T20:49:46;98233.63;;;-0.68;86.99
43155;BME280;34212;51.018;13.586;2023-01-29T20:54:47;98218.56;;;-0.65;88.44
43155;BME280;34212;51.018;13.586;2023-01-29T20:59:49;98212.56;;;-0.67;88.74
43155;BME280;34212;51.018;13.586;2023-01-29T21:04:50;98203.44;;;-0.74;88.75
43155;BME280;34212;51.018;13.586;2023-01-29T21:09:52;98194.19;;;-0.80;88.63
43155;BME280;34212;51.018;13.586;2023-01-29T21:14:53;98183.78;;;-0.81;88.31
43155;BME280;34212;51.018;13.586;2023-01-29T21:19:55;98169.63;;;-0.91;89.07
43155;BME280;34212;51.018;13.586;2023-01-29T21:24:56;98152.97;;;-0.90;88.55
43155;BME280;34212;51.018;13.586;2023-01-29T21:29:58;98143.56;;;-0.93;88.14
43155;BME280;34212;51.018;13.586;2023-01-29T21:35:00;98155.59;;;-0.90;88.32
43155;BME280;34212;51.018;13.586;2023-01-29T21:40:05;98149.88;;;-0.83;88.54
43155;BME280;34212;51.018;13.586;2023-01-29T21:45:07;98142.00;;;-0.83;88.16
43155;BME280;34212;51.018;13.586;2023-01-29T21:50:09;98130.50;;;-0.80;88.00
43155;BME280;34212;51.018;13.586;2023-01-29T21:55:11;98127.06;;;-0.81;87.46
43155;BME280;34212;51.018;13.586;2023-01-29T22:00:13;98110.38;;;-0.80;87.95
43155;BME280;34212;51.018;13.586;2023-01-29T22:05:15;98094.03;;;-0.83;86.99
43155;BME280;34212;51.018;13.586;2023-01-29T22:10:20;98088.47;;;-0.91;86.89
43155;BME280;34212;51.018;13.586;2023-01-29T22:15:22;98091.06;;;-0.91;87.43
43155;BME280;34212;51.018;13.586;2023-01-29T22:20:24;98071.59;;;-0.87;87.54
43155;BME280;34212;51.018;13.586;2023-01-29T22:25:30;98054.56;;;-0.80;87.43
43155;BME280;34212;51.018;13.586;2023-01-29T22:30:32;98044.78;;;-0.78;87.04
43155;BME280;34212;51.018;13.586;2023-01-29T22:35:34;98034.44;;;-0.80;86.82
43155;BME280;34212;51.018;13.586;2023-01-29T22:40:35;98029.28;;;-0.81;86.80
43155;BME280;34212;51.018;13.586;2023-01-29T22:45:38;98018.81;;;-0.81;86.99
43155;BME280;34212;51.018;13.586;2023-01-29T22:50:40;98005.00;;;-0.83;86.45
43155;BME280;34212;51.018;13.586;2023-01-29T22:55:41;97986.88;;;-0.86;86.73
43155;BME280;34212;51.018;13.586;2023-01-29T23:00:43;97985.94;;;-0.85;86.78
43155;BME280;34212;51.018;13.586;2023-01-29T23:05:44;97976.50;;;-0.75;87.68
43155;BME280;34212;51.018;13.586;2023-01-29T23:10:46;97965.38;;;-0.66;87.56
43155;BME280;34212;51.018;13.586;2023-01-29T23:15:56;97954.50;;;-0.60;87.57
43155;BME280;34212;51.018;13.586;2023-01-29T23:20:58;97947.47;;;-0.59;87.47
43155;BME280;34212;51.018;13.586;2023-01-29T23:26:01;97945.72;;;-0.59;86.59
43155;BME280;34212;51.018;13.586;2023-01-29T23:31:22;97939.50;;;-0.58;87.12
43155;BME280;34212;51.018;13.586;2023-01-29T23:36:24;97931.44;;;-0.55;87.28
43155;BME280;34212;51.018;13.586;2023-01-29T23:41:25;97917.69;;;-0.45;87.53
43155;BME280;34212;51.018;13.586;2023-01-29T23:46:27;97892.22;;;-0.43;87.15
43155;BME280;34212;51.018;13.586;2023-01-29T23:51:28;97878.78;;;-0.39;87.25
43155;BME280;34212;51.018;13.586;2023-01-29T23:56:30;97868.91;;;-0.35;87.23
